createdAt,value
2018-10-18T00:00:43.269Z,19.50
2018-10-18T00:03:12.638Z,19.50
2018-10-18T00:05:42.097Z,19.50
2018-10-18T00:08:11.752Z,19.50
2018-10-18T00:10:41.550Z,19.40
2018-10-18T00:13:10.545Z,19.40
2018-10-18T00:15:40.345Z,19.40
2018-10-18T00:18:09.751Z,19.40
2018-10-18T00:20:38.758Z,19.40
2018-10-18T00:23:07.674Z,19.40
2018-10-18T00:25:36.595Z,19.40
2018-10-18T00:28:05.460Z,19.40
2018-10-18T00:30:34.818Z,19.40
2018-10-18T00:33:04.841Z,19.30
2018-10-18T00:35:33.978Z,19.30
2018-10-18T00:38:02.947Z,19.30
2018-10-18T00:40:31.795Z,19.20
2018-10-18T00:43:00.705Z,19.20
2018-10-18T00:45:29.915Z,19.20
2018-10-18T00:47:59.637Z,19.10
2018-10-18T00:50:28.532Z,19.10
2018-10-18T00:52:57.617Z,19.10
2018-10-18T00:55:26.576Z,19.10
2018-10-18T00:57:55.534Z,19.00
2018-10-18T01:00:24.419Z,19.00
2018-10-18T01:02:53.366Z,19.00
2018-10-18T01:05:22.476Z,19.00
2018-10-18T01:07:52.116Z,19.00
2018-10-18T01:10:21.853Z,18.90
2018-10-18T01:12:50.801Z,19.00
2018-10-18T01:15:19.640Z,19.00
2018-10-18T01:17:48.862Z,18.90
2018-10-18T01:20:18.957Z,18.90
2018-10-18T01:22:49.002Z,18.90
2018-10-18T01:25:18.110Z,18.90
2018-10-18T01:27:48.015Z,18.90
2018-10-18T01:30:17.141Z,18.80
2018-10-18T01:32:46.612Z,18.80
2018-10-18T01:35:15.665Z,18.80
2018-10-18T01:37:44.733Z,18.80
2018-10-18T01:40:14.005Z,18.80
2018-10-18T01:42:42.834Z,18.70
2018-10-18T01:45:12.249Z,18.70
2018-10-18T01:47:41.329Z,18.70
2018-10-18T01:50:10.509Z,18.70
2018-10-18T01:52:39.997Z,18.70
2018-10-18T01:55:09.750Z,18.70
2018-10-18T01:57:38.598Z,18.70
2018-10-18T02:00:08.538Z,18.70
2018-10-18T02:02:37.722Z,18.70
2018-10-18T02:05:06.705Z,18.70
2018-10-18T02:07:35.582Z,18.70
2018-10-18T02:10:05.009Z,18.70
2018-10-18T02:12:34.197Z,18.70
2018-10-18T02:15:03.200Z,18.60
2018-10-18T02:17:32.129Z,18.60
2018-10-18T02:20:01.491Z,18.60
2018-10-18T02:22:30.497Z,18.60
2018-10-18T02:25:00.141Z,18.60
2018-10-18T02:27:29.072Z,18.60
2018-10-18T02:29:58.093Z,18.50
2018-10-18T02:32:27.014Z,18.60
2018-10-18T02:34:55.990Z,18.60
2018-10-18T02:37:24.874Z,18.60
2018-10-18T02:39:53.744Z,18.60
2018-10-18T02:42:22.657Z,18.60
2018-10-18T02:44:52.058Z,18.60
2018-10-18T02:47:20.938Z,18.60
2018-10-18T02:49:51.402Z,18.50
2018-10-18T02:52:20.289Z,18.50
2018-10-18T02:54:49.146Z,18.60
2018-10-18T02:57:18.000Z,18.50
2018-10-18T02:59:46.861Z,18.50
2018-10-18T03:02:15.778Z,18.50
2018-10-18T03:04:44.723Z,18.50
2018-10-18T03:07:13.654Z,18.50
2018-10-18T03:09:42.626Z,18.50
2018-10-18T03:12:11.551Z,18.50
2018-10-18T03:14:40.501Z,18.40
2018-10-18T03:17:09.670Z,18.40
2018-10-18T03:19:38.869Z,18.40
2018-10-18T03:22:07.795Z,18.40
2018-10-18T03:24:36.693Z,18.40
2018-10-18T03:27:06.025Z,18.40
2018-10-18T03:29:34.858Z,18.40
2018-10-18T03:32:03.883Z,18.30
2018-10-18T03:34:32.769Z,18.40
2018-10-18T03:37:02.107Z,18.30
2018-10-18T03:39:31.099Z,18.30
2018-10-18T03:41:59.982Z,18.30
2018-10-18T03:44:29.017Z,18.30
2018-10-18T03:46:58.396Z,18.30
2018-10-18T03:49:27.234Z,18.30
2018-10-18T03:51:56.278Z,18.30
2018-10-18T03:54:25.150Z,18.30
2018-10-18T03:56:54.687Z,18.30
2018-10-18T03:59:23.610Z,18.30
2018-10-18T04:01:52.660Z,18.30
2018-10-18T04:04:22.156Z,18.40
2018-10-18T04:06:51.218Z,18.30
2018-10-18T04:09:20.106Z,18.30
2018-10-18T04:11:49.555Z,18.30
2018-10-18T04:14:18.536Z,18.30
2018-10-18T04:16:47.422Z,18.30
2018-10-18T04:19:16.294Z,18.20
2018-10-18T04:21:45.517Z,18.20
2018-10-18T04:24:14.531Z,18.20
2018-10-18T04:26:43.710Z,18.20
2018-10-18T04:29:12.801Z,18.20
2018-10-18T04:31:42.126Z,18.20
2018-10-18T04:34:10.970Z,18.40
2018-10-18T04:36:39.870Z,18.20
2018-10-18T04:39:11.531Z,18.20
2018-10-18T04:41:41.050Z,18.10
2018-10-18T04:44:10.774Z,18.10
2018-10-18T04:46:39.779Z,18.10
2018-10-18T04:49:09.855Z,18.10
2018-10-18T04:51:39.281Z,18.10
2018-10-18T04:54:08.350Z,18.10
2018-10-18T04:56:38.219Z,18.10
2018-10-18T04:59:07.242Z,18.10
2018-10-18T05:01:36.240Z,18.10
2018-10-18T05:04:05.621Z,18.10
2018-10-18T05:06:35.077Z,18.10
2018-10-18T05:09:05.293Z,18.10
2018-10-18T05:11:34.353Z,18.10
2018-10-18T05:14:03.197Z,18.10
2018-10-18T05:16:32.183Z,18.10
2018-10-18T05:19:01.315Z,18.10
2018-10-18T05:21:30.227Z,18.10
2018-10-18T05:23:59.637Z,18.10
2018-10-18T05:26:28.483Z,18.10
2018-10-18T05:28:57.374Z,18.10
2018-10-18T05:31:57.057Z,18.20
2018-10-18T05:34:26.305Z,18.10
2018-10-18T05:36:55.338Z,18.20
2018-10-18T05:39:24.193Z,18.30
2018-10-18T05:41:53.552Z,18.30
2018-10-18T05:44:22.530Z,18.40
2018-10-18T05:46:51.639Z,18.60
2018-10-18T05:49:21.183Z,18.70
2018-10-18T05:51:50.149Z,18.80
2018-10-18T05:54:19.095Z,19.00
2018-10-18T05:56:47.996Z,19.10
2018-10-18T05:59:16.921Z,19.30
2018-10-18T06:01:46.083Z,19.40
2018-10-18T06:04:15.669Z,19.60
2018-10-18T06:06:44.690Z,19.70
2018-10-18T06:09:21.553Z,19.90
2018-10-18T06:11:50.550Z,20.10
2018-10-18T06:14:19.486Z,20.30
2018-10-18T06:16:48.353Z,20.50
2018-10-18T06:19:17.396Z,20.60
2018-10-18T06:21:46.355Z,20.80
2018-10-18T06:24:15.535Z,20.90
2018-10-18T06:26:44.413Z,21.00
2018-10-18T06:29:13.412Z,21.10
2018-10-18T06:31:42.347Z,21.30
2018-10-18T06:34:11.300Z,21.40
2018-10-18T06:36:40.154Z,21.60
2018-10-18T06:39:10.624Z,21.70
2018-10-18T06:41:40.406Z,21.80
2018-10-18T06:44:09.350Z,21.90
2018-10-18T06:46:38.227Z,22.00
2018-10-18T06:49:07.220Z,22.10
2018-10-18T06:51:36.211Z,22.20
2018-10-18T06:54:05.313Z,22.30
2018-10-18T06:56:34.405Z,22.40
2018-10-18T06:59:04.045Z,22.60
2018-10-18T07:01:32.934Z,22.60
2018-10-18T07:04:19.171Z,22.70
2018-10-18T07:06:50.068Z,22.70
2018-10-18T07:09:19.857Z,22.80
2018-10-18T07:11:49.500Z,22.90
2018-10-18T07:14:18.469Z,23.00
2018-10-18T07:16:47.358Z,23.10
2018-10-18T07:19:16.335Z,23.20
2018-10-18T07:21:45.228Z,23.30
2018-10-18T07:24:14.162Z,23.30
2018-10-18T07:26:43.058Z,23.40
2018-10-18T07:29:11.945Z,23.40
2018-10-18T07:31:41.018Z,23.50
2018-10-18T07:34:09.914Z,23.50
2018-10-18T07:36:39.067Z,23.50
2018-10-18T07:39:12.175Z,23.50
2018-10-18T07:41:41.239Z,23.60
2018-10-18T07:44:10.345Z,23.60
2018-10-18T07:46:39.853Z,23.70
2018-10-18T07:49:08.830Z,23.70
2018-10-18T07:51:37.728Z,23.70
2018-10-18T07:54:06.727Z,23.70
2018-10-18T07:56:36.943Z,23.80
2018-10-18T07:59:06.176Z,23.80
2018-10-18T08:01:35.081Z,23.80
2018-10-18T08:04:04.014Z,23.80
2018-10-18T08:06:33.474Z,23.90
2018-10-18T08:09:02.554Z,24.00
2018-10-18T08:11:31.469Z,24.20
2018-10-18T08:14:00.373Z,24.30
2018-10-18T08:16:29.266Z,24.40
2018-10-18T08:18:58.181Z,24.50
2018-10-18T08:21:27.349Z,24.50
2018-10-18T08:23:56.541Z,24.50
2018-10-18T08:26:25.477Z,24.50
2018-10-18T08:28:54.336Z,24.60
2018-10-18T08:31:23.805Z,24.60
2018-10-18T08:33:53.017Z,24.70
2018-10-18T08:36:23.349Z,24.80
2018-10-18T08:38:52.285Z,24.90
2018-10-18T08:41:21.325Z,25.00
2018-10-18T08:43:50.312Z,25.00
2018-10-18T08:46:19.214Z,25.00
2018-10-18T08:48:48.210Z,25.10
2018-10-18T08:51:17.161Z,25.10
2018-10-18T08:53:46.558Z,25.10
2018-10-18T08:56:15.762Z,25.10
2018-10-18T08:58:44.882Z,25.00
2018-10-18T09:01:13.842Z,25.00
2018-10-18T09:03:42.807Z,25.00
2018-10-18T09:06:12.807Z,25.00
2018-10-18T09:08:41.671Z,25.00
2018-10-18T09:11:10.666Z,25.10
2018-10-18T09:13:39.671Z,25.10
2018-10-18T09:16:08.592Z,25.20
2018-10-18T09:18:37.550Z,25.20
2018-10-18T09:21:08.382Z,25.20
2018-10-18T09:23:37.408Z,25.20
2018-10-18T09:26:06.623Z,25.30
2018-10-18T09:28:41.414Z,25.40
2018-10-18T09:31:10.935Z,25.40
2018-10-18T09:33:39.897Z,25.40
2018-10-18T09:36:08.897Z,25.50
2018-10-18T09:38:37.912Z,25.50
2018-10-18T09:41:06.926Z,25.50
2018-10-18T09:43:35.870Z,25.40
2018-10-18T09:46:05.332Z,25.30
2018-10-18T09:48:34.636Z,25.30
2018-10-18T09:51:03.574Z,25.30
2018-10-18T09:53:32.486Z,25.30
2018-10-18T09:56:01.435Z,25.20
2018-10-18T09:58:30.457Z,25.10
2018-10-18T10:01:04.711Z,25.10
2018-10-18T10:03:33.675Z,25.00
2018-10-18T10:06:02.830Z,25.00
2018-10-18T10:08:32.352Z,25.10
2018-10-18T10:11:01.275Z,25.10
2018-10-18T10:13:30.349Z,25.20
2018-10-18T10:15:59.171Z,25.20
2018-10-18T10:18:28.693Z,25.30
2018-10-18T10:20:57.864Z,25.20
2018-10-18T10:23:26.782Z,25.20
2018-10-18T10:25:55.748Z,25.10
2018-10-18T10:28:24.706Z,25.10
2018-10-18T10:30:53.631Z,25.00
2018-10-18T10:33:23.260Z,25.00
2018-10-18T10:35:52.220Z,25.00
2018-10-18T10:38:21.294Z,25.00
2018-10-18T10:40:50.236Z,25.00
2018-10-18T10:43:19.215Z,25.10
2018-10-18T10:45:48.247Z,25.10
2018-10-18T10:48:17.273Z,25.20
2018-10-18T10:50:47.377Z,25.20
2018-10-18T10:53:16.308Z,25.20
2018-10-18T10:55:45.179Z,25.20
2018-10-18T10:58:14.204Z,25.20
2018-10-18T11:01:19.061Z,25.20
2018-10-18T11:03:48.791Z,25.20
2018-10-18T11:06:17.881Z,25.20
2018-10-18T11:08:46.754Z,25.20
2018-10-18T11:11:16.359Z,25.20
2018-10-18T11:13:45.349Z,25.30
2018-10-18T11:16:14.350Z,25.30
2018-10-18T11:18:43.313Z,25.10
2018-10-18T11:21:13.708Z,25.10
2018-10-18T11:23:42.673Z,25.10
2018-10-18T11:26:11.658Z,25.10
2018-10-18T11:28:40.549Z,25.00
2018-10-18T11:31:09.968Z,25.00
2018-10-18T11:33:41.360Z,25.10
2018-10-18T11:36:11.216Z,25.10
2018-10-18T11:38:40.143Z,25.10
2018-10-18T11:41:09.298Z,25.10
2018-10-18T11:43:38.806Z,25.10
2018-10-18T11:46:10.023Z,25.10
2018-10-18T11:48:49.182Z,25.10
2018-10-18T11:51:18.135Z,25.20
2018-10-18T11:53:47.132Z,25.30
2018-10-18T11:56:23.642Z,25.40
2018-10-18T11:58:53.104Z,25.50
2018-10-18T12:01:23.885Z,25.70
2018-10-18T12:03:54.462Z,25.70
2018-10-18T12:06:23.481Z,25.90
2018-10-18T12:08:52.409Z,26.10
2018-10-18T12:11:25.370Z,26.20
2018-10-18T12:14:03.388Z,26.40
2018-10-18T12:16:32.972Z,26.60
2018-10-18T12:19:01.992Z,26.70
2018-10-18T12:21:31.448Z,26.90
2018-10-18T12:24:01.493Z,27.00
2018-10-18T12:26:30.661Z,27.20
2018-10-18T12:28:59.666Z,27.50
2018-10-18T12:31:30.458Z,27.90
2018-10-18T12:34:04.900Z,28.50
2018-10-18T12:36:34.742Z,29.50
2018-10-18T12:39:08.206Z,30.80
2018-10-18T12:41:40.200Z,32.20
2018-10-18T12:44:35.410Z,33.80
2018-10-18T12:47:07.124Z,35.40
2018-10-18T12:49:38.092Z,36.80
2018-10-18T12:52:10.007Z,37.60
2018-10-18T12:54:40.429Z,38.40
2018-10-18T12:57:10.765Z,39.00
2018-10-18T12:59:39.729Z,39.20
2018-10-18T13:02:10.017Z,39.10
2018-10-18T13:04:39.269Z,38.90
2018-10-18T13:07:15.193Z,38.80
2018-10-18T13:09:47.290Z,39.00
2018-10-18T13:12:16.300Z,39.50
2018-10-18T13:14:45.129Z,40.00
2018-10-18T13:17:14.165Z,40.20
2018-10-18T13:19:43.242Z,40.00
2018-10-18T13:22:12.191Z,40.00
2018-10-18T13:24:41.078Z,40.20
2018-10-18T13:27:10.050Z,40.60
2018-10-18T13:29:39.010Z,40.70
2018-10-18T13:32:07.998Z,40.20
2018-10-18T13:34:36.842Z,39.90
2018-10-18T13:37:06.078Z,39.80
2018-10-18T13:39:35.044Z,39.60
2018-10-18T13:42:04.099Z,39.30
2018-10-18T13:44:33.090Z,39.20
2018-10-18T13:47:02.102Z,39.10
2018-10-18T13:49:31.325Z,39.10
2018-10-18T13:52:01.306Z,39.10
2018-10-18T13:54:30.282Z,39.00
2018-10-18T13:56:59.178Z,38.80
2018-10-18T13:59:39.198Z,38.60
2018-10-18T14:02:08.101Z,38.40
2018-10-18T14:04:37.088Z,38.40
2018-10-18T14:07:06.076Z,38.20
2018-10-18T14:09:34.977Z,38.00
2018-10-18T14:12:04.032Z,38.00
2018-10-18T14:14:32.986Z,38.00
2018-10-18T14:17:02.181Z,37.90
2018-10-18T14:19:31.142Z,37.70
2018-10-18T14:22:00.325Z,37.60
2018-10-18T14:24:29.269Z,37.60
2018-10-18T14:26:58.242Z,37.80
2018-10-18T14:29:27.159Z,37.90
2018-10-18T14:31:57.006Z,37.90
2018-10-18T14:34:25.930Z,37.70
2018-10-18T14:36:55.692Z,37.50
2018-10-18T14:39:24.598Z,37.10
2018-10-18T14:41:53.534Z,36.70
2018-10-18T14:44:22.677Z,36.10
2018-10-18T14:46:51.523Z,35.50
2018-10-18T14:49:20.722Z,34.70
2018-10-18T14:51:50.011Z,33.60
2018-10-18T14:54:18.874Z,32.50
2018-10-18T14:56:47.742Z,31.20
2018-10-18T14:59:16.870Z,30.10
2018-10-18T15:01:45.749Z,29.10
2018-10-18T15:04:14.626Z,28.30
2018-10-18T15:06:43.819Z,27.60
2018-10-18T15:09:12.754Z,27.10
2018-10-18T15:11:41.633Z,26.70
2018-10-18T15:14:10.692Z,26.30
2018-10-18T15:16:39.621Z,26.00
2018-10-18T15:19:09.349Z,25.80
2018-10-18T15:21:38.297Z,25.60
2018-10-18T15:24:07.258Z,25.40
2018-10-18T15:26:36.357Z,25.30
2018-10-18T15:29:06.038Z,25.20
2018-10-18T15:31:34.981Z,25.00
2018-10-18T15:34:04.179Z,24.90
2018-10-18T15:36:33.106Z,24.80
2018-10-18T15:39:02.043Z,24.70
2018-10-18T15:41:30.969Z,24.60
2018-10-18T15:43:59.972Z,24.50
2018-10-18T15:46:29.243Z,24.40
2018-10-18T15:48:58.190Z,24.30
2018-10-18T15:51:27.546Z,24.20
2018-10-18T15:53:56.589Z,24.20
2018-10-18T15:56:25.775Z,24.10
2018-10-18T15:58:54.670Z,24.00
2018-10-18T16:01:26.114Z,23.80
2018-10-18T16:03:55.078Z,23.70
2018-10-18T16:06:26.505Z,23.60
2018-10-18T16:09:02.997Z,23.50
2018-10-18T16:11:40.265Z,23.40
2018-10-18T16:14:09.338Z,23.30
2018-10-18T16:16:38.225Z,23.20
2018-10-18T16:19:10.992Z,23.10
2018-10-18T16:21:44.342Z,23.10
2018-10-18T16:24:19.171Z,22.90
2018-10-18T16:26:48.242Z,22.90
2018-10-18T16:29:17.681Z,22.80
2018-10-18T16:31:46.930Z,22.70
2018-10-18T16:34:18.353Z,22.70
2018-10-18T16:36:47.335Z,22.60
2018-10-18T16:39:16.389Z,22.60
2018-10-18T16:41:45.946Z,22.50
2018-10-18T16:44:14.998Z,22.40
2018-10-18T16:46:43.892Z,22.40
2018-10-18T16:49:12.870Z,22.30
2018-10-18T16:51:41.775Z,22.30
2018-10-18T16:54:10.845Z,22.20
2018-10-18T16:56:46.356Z,22.20
2018-10-18T16:59:28.258Z,22.20
2018-10-18T17:01:57.889Z,22.10
2018-10-18T17:04:26.990Z,22.10
2018-10-18T17:06:58.854Z,22.00
2018-10-18T17:09:28.915Z,22.00
2018-10-18T17:11:58.002Z,21.90
2018-10-18T17:14:26.906Z,21.90
2018-10-18T17:16:56.019Z,21.90
2018-10-18T17:19:25.701Z,21.80
2018-10-18T17:21:54.910Z,21.80
2018-10-18T17:24:23.863Z,21.80
2018-10-18T17:26:52.803Z,21.70
2018-10-18T17:29:21.804Z,21.70
2018-10-18T17:31:50.738Z,21.70
2018-10-18T17:34:20.550Z,21.60
2018-10-18T17:36:49.905Z,21.60
2018-10-18T17:39:18.969Z,21.60
2018-10-18T17:41:48.013Z,21.50
2018-10-18T17:44:17.546Z,21.50
2018-10-18T17:46:46.817Z,21.50
2018-10-18T17:49:15.843Z,21.50
2018-10-18T17:51:44.818Z,21.40
2018-10-18T17:54:13.864Z,21.40
2018-10-18T17:56:42.821Z,21.40
2018-10-18T17:59:12.551Z,21.40
2018-10-18T18:01:41.581Z,21.30
2018-10-18T18:04:10.566Z,21.30
2018-10-18T18:06:39.643Z,21.30
2018-10-18T18:09:08.509Z,21.20
2018-10-18T18:11:37.454Z,21.20
2018-10-18T18:14:12.877Z,21.20
2018-10-18T18:16:41.950Z,21.20
2018-10-18T18:19:12.066Z,21.10
2018-10-18T18:21:43.321Z,21.10
2018-10-18T18:24:12.242Z,21.00
2018-10-18T18:26:45.347Z,21.00
2018-10-18T18:29:10.093Z,21.00
2018-10-18T18:31:39.001Z,20.90
2018-10-18T18:34:07.936Z,20.90
2018-10-18T18:36:36.950Z,20.90
2018-10-18T18:39:09.095Z,20.90
2018-10-18T18:41:37.906Z,20.80
2018-10-18T18:44:07.134Z,20.80
2018-10-18T18:46:43.643Z,20.80
2018-10-18T18:49:13.229Z,20.70
2018-10-18T18:51:42.178Z,20.70
2018-10-18T18:54:11.242Z,20.70
2018-10-18T18:56:40.439Z,20.60
2018-10-18T18:59:09.526Z,20.60
2018-10-18T19:01:38.611Z,20.60
2018-10-18T19:04:07.590Z,20.60
2018-10-18T19:06:36.598Z,20.50
2018-10-18T19:09:08.428Z,20.50
2018-10-18T19:11:45.503Z,20.50
2018-10-18T19:14:17.774Z,20.40
2018-10-18T19:16:46.648Z,20.40
2018-10-18T19:19:16.066Z,20.40
2018-10-18T19:21:47.798Z,20.40
2018-10-18T19:24:17.613Z,20.30
2018-10-18T19:26:46.925Z,20.30
2018-10-18T19:29:16.141Z,20.30
2018-10-18T19:31:45.168Z,20.30
2018-10-18T19:34:14.915Z,20.30
2018-10-18T19:36:47.304Z,20.20
2018-10-18T19:39:17.317Z,20.20
2018-10-18T19:41:47.118Z,20.20
2018-10-18T19:44:16.543Z,20.20
2018-10-18T19:46:46.026Z,20.10
2018-10-18T19:49:15.506Z,20.10
2018-10-18T19:51:44.658Z,20.10
2018-10-18T19:54:14.167Z,20.10
2018-10-18T19:56:43.225Z,20.10
2018-10-18T19:59:12.644Z,20.10
2018-10-18T20:01:42.153Z,20.00
2018-10-18T20:04:11.444Z,20.00
2018-10-18T20:06:40.636Z,20.00
2018-10-18T20:09:12.089Z,20.00
2018-10-18T20:11:41.631Z,20.00
2018-10-18T20:14:10.956Z,19.90
2018-10-18T20:16:40.022Z,19.90
2018-10-18T20:19:09.181Z,19.90
2018-10-18T20:21:38.717Z,19.90
2018-10-18T20:24:08.439Z,19.80
2018-10-18T20:26:37.928Z,19.80
2018-10-18T20:29:07.164Z,19.80
2018-10-18T20:31:36.169Z,19.80
2018-10-18T20:34:05.472Z,19.80
2018-10-18T20:36:34.381Z,19.80
2018-10-18T20:39:04.037Z,19.70
2018-10-18T20:41:32.871Z,19.70
2018-10-18T20:44:04.486Z,19.70
2018-10-18T20:46:33.415Z,19.70
2018-10-18T20:49:02.431Z,19.70
2018-10-18T20:51:32.077Z,19.70
2018-10-18T20:54:01.118Z,19.70
2018-10-18T20:56:30.055Z,19.60
2018-10-18T20:58:59.015Z,19.60
2018-10-18T21:01:28.044Z,19.60
2018-10-18T21:03:56.985Z,19.60
2018-10-18T21:06:26.492Z,19.60
2018-10-18T21:08:55.423Z,19.50
2018-10-18T21:11:24.392Z,19.50
2018-10-18T21:13:53.305Z,19.50
2018-10-18T21:16:22.289Z,19.50
2018-10-18T21:18:51.166Z,19.50
2018-10-18T21:21:20.158Z,19.50
2018-10-18T21:23:49.050Z,19.50
2018-10-18T21:26:17.886Z,19.40
2018-10-18T21:28:46.840Z,19.40
2018-10-18T21:31:15.735Z,19.40
2018-10-18T21:33:44.779Z,19.40
2018-10-18T21:36:14.006Z,19.40
2018-10-18T21:38:42.961Z,19.30
2018-10-18T21:41:11.997Z,19.30
2018-10-18T21:43:41.290Z,19.30
2018-10-18T21:46:10.360Z,19.30
2018-10-18T21:48:39.587Z,19.30
2018-10-18T21:51:08.491Z,19.20
2018-10-18T21:53:37.360Z,19.20
2018-10-18T21:56:06.310Z,19.20
2018-10-18T21:58:35.490Z,19.10
2018-10-18T22:01:04.918Z,19.10
2018-10-18T22:03:33.884Z,19.10
2018-10-18T22:06:04.106Z,19.10
2018-10-18T22:08:32.993Z,19.00
2018-10-18T22:11:01.934Z,19.00
2018-10-18T22:13:30.873Z,19.00
2018-10-18T22:15:59.770Z,19.00
2018-10-18T22:18:28.682Z,19.00
2018-10-18T22:20:57.576Z,18.90
2018-10-18T22:23:26.686Z,18.90
2018-10-18T22:25:55.786Z,18.90
2018-10-18T22:28:24.982Z,18.90
2018-10-18T22:30:53.846Z,18.90
2018-10-18T22:33:22.778Z,18.90
2018-10-18T22:35:52.601Z,18.90
2018-10-18T22:38:21.674Z,18.90
2018-10-18T22:40:50.596Z,18.90
2018-10-18T22:43:19.486Z,18.90
2018-10-18T22:45:54.244Z,18.80
2018-10-18T22:48:23.190Z,18.80
2018-10-18T22:50:52.109Z,18.80
2018-10-18T22:53:21.310Z,18.80
2018-10-18T22:55:50.166Z,18.80
2018-10-18T22:58:19.034Z,18.80
2018-10-18T23:00:48.309Z,18.80
2018-10-18T23:03:19.143Z,18.80
2018-10-18T23:05:49.341Z,18.80
2018-10-18T23:08:18.659Z,18.70
2018-10-18T23:10:47.806Z,18.70
2018-10-18T23:13:17.266Z,18.70
2018-10-18T23:15:46.122Z,18.70
2018-10-18T23:18:15.047Z,18.70
2018-10-18T23:20:43.879Z,18.70
2018-10-18T23:23:12.859Z,18.60
2018-10-18T23:25:41.744Z,18.60
2018-10-18T23:28:11.420Z,18.50
2018-10-18T23:30:40.832Z,18.50
2018-10-18T23:33:10.435Z,18.50
2018-10-18T23:35:39.433Z,18.50
2018-10-18T23:38:08.794Z,18.50
2018-10-18T23:40:37.768Z,18.40
2018-10-18T23:43:06.719Z,18.40
2018-10-18T23:45:35.597Z,18.40
2018-10-18T23:48:04.565Z,18.40
2018-10-18T23:50:33.701Z,18.40
2018-10-18T23:53:02.726Z,18.30
2018-10-18T23:55:32.412Z,18.30
2018-10-18T23:58:01.274Z,18.30
